createdAt,value
2023-05-09T00:00:25.162Z,5.13
2023-05-09T00:02:30.491Z,4.50
2023-05-09T00:04:35.653Z,4.60
2023-05-09T00:08:48.021Z,4.93
2023-05-09T00:10:53.900Z,4.10
2023-05-09T00:12:59.979Z,4.82
2023-05-09T00:15:08.478Z,5.53
2023-05-09T00:17:15.964Z,4.80
2023-05-09T00:19:21.609Z,4.60
2023-05-09T00:21:26.511Z,4.32
2023-05-09T00:23:31.415Z,4.40
2023-05-09T00:25:38.958Z,4.55
2023-05-09T00:27:43.922Z,5.00
2023-05-09T00:29:48.806Z,4.55
2023-05-09T00:31:53.737Z,5.03
2023-05-09T00:33:58.648Z,4.18
2023-05-09T00:36:03.594Z,4.55
2023-05-09T00:38:08.623Z,4.68
2023-05-09T00:40:14.780Z,4.70
2023-05-09T00:42:25.015Z,4.10
2023-05-09T00:44:30.008Z,4.47
2023-05-09T00:46:35.139Z,4.72
2023-05-09T00:50:44.995Z,4.55
2023-05-09T00:54:55.003Z,4.32
2023-05-09T00:57:00.674Z,4.88
2023-05-09T00:59:09.207Z,5.32
2023-05-09T01:01:14.360Z,5.30
2023-05-09T01:05:27.998Z,5.03
2023-05-09T01:07:41.040Z,4.93
2023-05-09T01:09:53.737Z,4.90
2023-05-09T01:12:09.503Z,4.70
2023-05-09T01:14:28.619Z,5.53
2023-05-09T01:16:41.766Z,4.82
2023-05-09T01:18:52.844Z,4.55
2023-05-09T01:21:04.870Z,4.47
2023-05-09T01:23:31.568Z,4.25
2023-05-09T01:25:58.726Z,4.65
2023-05-09T01:28:15.642Z,4.85
2023-05-09T01:30:23.808Z,4.97
2023-05-09T01:32:31.015Z,4.93
2023-05-09T01:34:37.873Z,5.07
2023-05-09T01:36:45.272Z,4.85
2023-05-09T01:38:53.344Z,4.63
2023-05-09T01:41:01.193Z,5.15
2023-05-09T01:43:10.836Z,5.45
2023-05-09T01:45:17.467Z,5.28
2023-05-09T01:47:26.474Z,4.88
2023-05-09T01:49:34.180Z,4.97
2023-05-09T01:51:43.596Z,4.88
2023-05-09T01:53:52.793Z,5.30
2023-05-09T01:55:59.691Z,5.22
2023-05-09T01:58:07.744Z,5.88
2023-05-09T02:00:16.090Z,5.10
2023-05-09T02:02:26.271Z,4.90
2023-05-09T02:04:32.114Z,5.10
2023-05-09T02:06:40.581Z,4.75
2023-05-09T02:08:46.614Z,4.70
2023-05-09T02:10:53.327Z,4.95
2023-05-09T02:12:58.704Z,5.18
2023-05-09T02:15:03.874Z,5.22
2023-05-09T02:17:10.118Z,5.50
2023-05-09T02:19:17.689Z,5.50
2023-05-09T02:21:22.938Z,5.38
2023-05-09T02:23:27.913Z,5.93
2023-05-09T02:25:33.151Z,5.90
2023-05-09T02:29:47.682Z,6.35
2023-05-09T02:31:55.955Z,5.70
2023-05-09T02:34:02.151Z,5.40
2023-05-09T02:36:12.095Z,6.30
2023-05-09T02:38:20.429Z,6.55
2023-05-09T02:40:26.144Z,5.57
2023-05-09T02:42:32.154Z,5.35
2023-05-09T02:44:39.041Z,6.00
2023-05-09T02:46:44.039Z,4.95
2023-05-09T02:48:49.501Z,5.43
2023-05-09T02:50:54.448Z,5.75
2023-05-09T02:53:01.993Z,5.70
2023-05-09T02:55:08.062Z,7.90
2023-05-09T02:57:16.544Z,6.68
2023-05-09T03:01:27.171Z,6.38
2023-05-09T03:03:34.324Z,7.13
2023-05-09T03:05:41.856Z,6.72
2023-05-09T03:07:47.592Z,7.40
2023-05-09T03:09:55.062Z,7.30
2023-05-09T03:12:00.552Z,7.72
2023-05-09T03:14:05.575Z,7.43
2023-05-09T03:16:10.776Z,7.32
2023-05-09T03:18:15.770Z,8.20
2023-05-09T03:22:25.721Z,7.97
2023-05-09T03:24:36.510Z,7.80
2023-05-09T03:26:43.982Z,7.63
2023-05-09T03:28:49.545Z,8.05
2023-05-09T03:33:02.651Z,7.40
2023-05-09T03:35:07.947Z,8.43
2023-05-09T03:37:13.465Z,7.05
2023-05-09T03:39:20.787Z,7.07
2023-05-09T03:41:29.911Z,7.25
2023-05-09T03:43:37.860Z,6.75
2023-05-09T03:45:43.684Z,6.72
2023-05-09T03:47:49.785Z,6.60
2023-05-09T03:49:55.038Z,6.97
2023-05-09T03:52:01.339Z,6.80
2023-05-09T03:56:12.418Z,6.25
2023-05-09T03:58:23.651Z,5.82
2023-05-09T04:02:45.048Z,7.07
2023-05-09T04:04:58.910Z,6.82
2023-05-09T04:07:03.935Z,6.63
2023-05-09T04:09:09.789Z,6.22
2023-05-09T04:11:15.137Z,6.65
2023-05-09T04:13:25.879Z,6.95
2023-05-09T04:15:33.779Z,6.30
2023-05-09T04:17:38.821Z,6.55
2023-05-09T04:21:48.579Z,6.00
2023-05-09T04:23:53.643Z,6.60
2023-05-09T04:26:06.423Z,7.32
2023-05-09T04:28:11.876Z,6.63
2023-05-09T04:30:18.597Z,6.43
2023-05-09T04:32:27.571Z,7.22
2023-05-09T04:34:33.587Z,7.13
2023-05-09T04:36:44.758Z,6.63
2023-05-09T04:40:59.459Z,6.72
2023-05-09T04:43:04.491Z,6.70
2023-05-09T04:45:11.920Z,6.75
2023-05-09T04:47:17.297Z,7.10
2023-05-09T04:49:24.987Z,7.75
2023-05-09T04:51:29.909Z,8.23
2023-05-09T04:53:34.895Z,6.63
2023-05-09T04:55:39.952Z,7.30
2023-05-09T04:57:44.908Z,6.90
2023-05-09T04:59:49.931Z,6.80
2023-05-09T05:01:54.962Z,6.75
2023-05-09T05:04:00.097Z,7.53
2023-05-09T05:06:08.039Z,7.13
2023-05-09T05:08:14.746Z,7.07
2023-05-09T05:10:21.007Z,8.32
2023-05-09T05:12:31.178Z,7.22
2023-05-09T05:14:36.538Z,7.47
2023-05-09T05:16:43.204Z,7.50
2023-05-09T05:20:53.932Z,6.75
2023-05-09T05:23:01.848Z,6.93
2023-05-09T05:25:07.378Z,6.25
2023-05-09T05:27:14.482Z,6.90
2023-05-09T05:29:22.140Z,6.68
2023-05-09T05:31:27.176Z,6.07
2023-05-09T05:33:32.243Z,6.53
2023-05-09T05:35:40.808Z,6.15
2023-05-09T05:37:48.948Z,6.93
2023-05-09T05:39:57.602Z,6.78
2023-05-09T05:42:03.600Z,5.97
2023-05-09T05:44:08.833Z,6.32
2023-05-09T05:48:18.820Z,6.03
2023-05-09T05:50:25.193Z,5.57
2023-05-09T05:52:31.465Z,5.30
2023-05-09T05:54:38.696Z,5.40
2023-05-09T05:56:46.225Z,5.32
2023-05-09T05:58:51.362Z,5.15
2023-05-09T06:00:57.126Z,5.22
2023-05-09T06:03:02.175Z,5.30
2023-05-09T06:05:19.040Z,5.35
2023-05-09T06:07:23.978Z,4.95
2023-05-09T06:09:30.316Z,4.85
2023-05-09T06:11:35.260Z,5.20
2023-05-09T06:13:47.683Z,5.32
2023-05-09T06:15:52.781Z,4.90
2023-05-09T06:17:57.726Z,4.53
2023-05-09T06:20:02.684Z,4.60
2023-05-09T06:22:07.584Z,4.65
2023-05-09T06:24:23.470Z,4.97
2023-05-09T06:26:37.112Z,4.57
2023-05-09T06:28:47.487Z,4.65
2023-05-09T06:30:53.250Z,5.10
2023-05-09T06:32:58.594Z,4.50
2023-05-09T06:35:03.580Z,4.80
2023-05-09T06:37:08.756Z,5.00
2023-05-09T06:39:13.812Z,4.57
2023-05-09T06:43:23.503Z,4.60
2023-05-09T06:45:31.315Z,5.20
2023-05-09T06:47:36.461Z,4.38
2023-05-09T06:49:41.399Z,4.00
2023-05-09T06:51:46.295Z,4.30
2023-05-09T06:53:51.275Z,4.78
2023-05-09T06:55:56.297Z,4.38
2023-05-09T06:58:01.274Z,4.53
2023-05-09T07:00:07.305Z,4.10
2023-05-09T07:02:14.777Z,3.58
2023-05-09T07:04:22.070Z,3.78
2023-05-09T07:06:27.137Z,4.22
2023-05-09T07:08:32.135Z,4.03
2023-05-09T07:10:38.562Z,3.53
2023-05-09T07:12:44.167Z,3.83
2023-05-09T07:14:49.138Z,3.40
2023-05-09T07:16:56.504Z,4.15
2023-05-09T07:19:09.879Z,3.53
2023-05-09T07:21:14.909Z,4.55
2023-05-09T07:23:22.386Z,4.35
2023-05-09T07:25:27.454Z,3.80
2023-05-09T07:27:32.347Z,4.53
2023-05-09T07:29:37.548Z,4.00
2023-05-09T07:31:44.468Z,3.80
2023-05-09T07:33:49.388Z,3.83
2023-05-09T07:35:56.966Z,4.03
2023-05-09T07:38:01.984Z,3.90
2023-05-09T07:40:08.307Z,4.05
2023-05-09T07:42:13.449Z,3.28
2023-05-09T07:46:23.261Z,3.78
2023-05-09T07:50:33.036Z,4.28
2023-05-09T07:52:40.664Z,3.58
2023-05-09T07:54:45.588Z,3.55
2023-05-09T07:58:55.777Z,3.63
2023-05-09T08:01:01.005Z,3.78
2023-05-09T08:05:14.208Z,3.22
2023-05-09T08:07:21.275Z,2.80
2023-05-09T08:09:29.126Z,3.15
2023-05-09T08:11:36.196Z,2.63
2023-05-09T08:13:41.143Z,3.25
2023-05-09T08:15:46.199Z,3.05
2023-05-09T08:19:56.045Z,3.10
2023-05-09T08:24:08.181Z,2.63
2023-05-09T08:26:15.803Z,2.63
2023-05-09T08:28:22.189Z,2.47
2023-05-09T08:30:27.294Z,3.33
2023-05-09T08:34:37.862Z,2.92
2023-05-09T08:36:47.239Z,2.90
2023-05-09T08:38:52.156Z,2.97
2023-05-09T08:41:02.585Z,2.88
2023-05-09T08:43:11.928Z,2.92
2023-05-09T08:45:19.582Z,3.50
2023-05-09T08:47:25.627Z,4.60
2023-05-09T08:49:30.953Z,3.17
2023-05-09T08:51:36.053Z,3.25
2023-05-09T08:55:45.854Z,3.47
2023-05-09T08:57:52.517Z,3.08
2023-05-09T09:00:00.566Z,3.80
2023-05-09T09:02:09.184Z,3.15
2023-05-09T09:04:14.806Z,3.30
2023-05-09T09:06:20.309Z,2.83
2023-05-09T09:08:25.734Z,2.97
2023-05-09T09:10:34.787Z,3.35
2023-05-09T09:12:40.466Z,3.15
2023-05-09T09:14:49.503Z,2.92
2023-05-09T09:17:00.343Z,3.30
2023-05-09T09:19:07.965Z,3.10
2023-05-09T09:21:15.993Z,3.08
2023-05-09T09:23:24.874Z,3.50
2023-05-09T09:25:29.868Z,3.45
2023-05-09T09:29:41.452Z,2.95
2023-05-09T09:31:48.735Z,2.78
2023-05-09T09:34:02.485Z,2.70
2023-05-09T09:36:08.789Z,2.85
2023-05-09T09:38:13.734Z,3.08
2023-05-09T09:40:18.628Z,2.63
2023-05-09T09:42:24.316Z,2.55
2023-05-09T09:44:30.687Z,2.92
2023-05-09T09:46:44.037Z,2.47
2023-05-09T09:48:53.019Z,2.55
2023-05-09T09:51:04.965Z,2.67
2023-05-09T09:53:09.871Z,2.90
2023-05-09T09:55:16.237Z,2.63
2023-05-09T09:57:37.268Z,2.67
2023-05-09T09:59:44.916Z,2.60
2023-05-09T10:02:00.395Z,2.40
2023-05-09T10:06:18.596Z,2.72
2023-05-09T10:08:23.520Z,2.75
2023-05-09T10:12:42.431Z,2.63
2023-05-09T10:14:47.899Z,2.88
2023-05-09T10:16:55.465Z,2.92
2023-05-09T10:19:00.540Z,2.70
2023-05-09T10:23:14.292Z,2.83
2023-05-09T10:25:22.826Z,3.03
2023-05-09T10:27:31.385Z,2.40
2023-05-09T10:29:38.976Z,2.75
2023-05-09T10:31:46.539Z,2.63
2023-05-09T10:33:52.774Z,3.10
2023-05-09T10:36:03.652Z,2.78
2023-05-09T10:38:12.626Z,3.00
2023-05-09T10:40:22.649Z,3.05
2023-05-09T10:42:28.629Z,2.80
2023-05-09T10:44:33.978Z,2.90
2023-05-09T10:46:41.028Z,2.80
2023-05-09T10:48:46.708Z,2.75
2023-05-09T10:50:52.159Z,2.25
2023-05-09T10:53:14.314Z,2.58
2023-05-09T10:55:25.143Z,2.40
2023-05-09T10:57:31.389Z,2.40
2023-05-09T10:59:39.023Z,2.65
2023-05-09T11:01:44.102Z,2.45
2023-05-09T11:06:03.309Z,2.67
2023-05-09T11:10:45.386Z,2.53
2023-05-09T11:13:01.093Z,2.40
2023-05-09T11:15:11.065Z,2.50
2023-05-09T11:17:17.993Z,2.60
2023-05-09T11:19:37.896Z,2.28
2023-05-09T11:22:03.673Z,2.72
2023-05-09T11:24:19.994Z,2.67
2023-05-09T11:26:32.129Z,2.88
2023-05-09T11:28:38.999Z,2.63
2023-05-09T11:30:45.617Z,2.60
2023-05-09T11:32:55.329Z,2.40
2023-05-09T11:35:10.212Z,2.28
2023-05-09T11:37:16.476Z,2.47
2023-05-09T11:39:28.119Z,2.63
2023-05-09T11:41:44.086Z,1.90
2023-05-09T11:43:49.164Z,2.53
2023-05-09T11:48:00.853Z,1.92
2023-05-09T11:50:06.067Z,2.25
2023-05-09T11:54:15.673Z,2.00
2023-05-09T11:56:20.832Z,2.05
2023-05-09T11:58:31.421Z,2.10
2023-05-09T12:00:37.472Z,1.70
2023-05-09T12:02:42.818Z,1.70
2023-05-09T12:04:48.218Z,2.00
2023-05-09T12:06:53.336Z,1.65
2023-05-09T12:08:59.893Z,1.63
2023-05-09T12:11:11.433Z,2.38
2023-05-09T12:13:18.446Z,1.92
2023-05-09T12:15:25.987Z,1.90
2023-05-09T12:17:31.658Z,1.98
2023-05-09T12:19:37.337Z,1.90
2023-05-09T12:21:43.325Z,1.70
2023-05-09T12:23:51.693Z,1.70
2023-05-09T12:25:59.740Z,1.48
2023-05-09T12:28:04.741Z,1.67
2023-05-09T12:32:22.265Z,1.40
2023-05-09T12:34:27.973Z,1.60
2023-05-09T12:36:37.907Z,1.38
2023-05-09T12:38:43.671Z,1.48
2023-05-09T12:40:51.852Z,1.50
2023-05-09T12:43:00.371Z,1.60
2023-05-09T12:45:06.149Z,1.90
2023-05-09T12:47:11.197Z,1.50
2023-05-09T12:51:30.457Z,1.55
2023-05-09T12:53:41.906Z,1.67
2023-05-09T12:55:47.306Z,1.60
2023-05-09T12:58:02.565Z,1.40
2023-05-09T13:00:10.433Z,1.60
2023-05-09T13:02:16.466Z,1.50
2023-05-09T13:04:28.953Z,1.30
2023-05-09T13:06:34.880Z,1.83
2023-05-09T13:08:40.348Z,1.60
2023-05-09T13:10:45.294Z,1.75
2023-05-09T13:14:56.542Z,1.50
2023-05-09T13:19:06.587Z,1.63
2023-05-09T13:21:14.287Z,1.85
2023-05-09T13:23:19.240Z,1.67
2023-05-09T13:27:29.287Z,1.80
2023-05-09T13:29:34.867Z,1.60
2023-05-09T13:31:39.812Z,2.00
2023-05-09T13:35:49.515Z,1.80
2023-05-09T13:37:58.945Z,1.60
2023-05-09T13:40:07.336Z,1.75
2023-05-09T13:42:12.405Z,1.30
2023-05-09T13:46:22.114Z,1.42
2023-05-09T13:48:27.296Z,1.48
2023-05-09T13:52:37.163Z,1.55
2023-05-09T13:54:45.354Z,1.73
2023-05-09T13:56:51.379Z,1.50
2023-05-09T13:58:56.318Z,1.70
2023-05-09T14:03:06.632Z,1.55
2023-05-09T14:05:12.477Z,1.58
2023-05-09T14:07:20.655Z,1.38
2023-05-09T14:09:28.729Z,1.90
2023-05-09T14:11:36.274Z,1.40
2023-05-09T14:13:41.448Z,1.70
2023-05-09T14:17:51.721Z,1.65
2023-05-09T14:19:56.838Z,1.30
2023-05-09T14:22:01.741Z,1.80
2023-05-09T14:26:11.566Z,1.35
2023-05-09T14:28:19.227Z,1.45
2023-05-09T14:30:25.827Z,1.90
2023-05-09T14:32:30.702Z,1.35
2023-05-09T14:34:35.611Z,2.10
2023-05-09T14:36:40.803Z,1.45
2023-05-09T14:40:52.215Z,1.40
2023-05-09T14:42:59.643Z,1.60
2023-05-09T14:45:10.657Z,1.60
2023-05-09T14:47:17.120Z,1.75
2023-05-09T14:49:22.848Z,1.80
2023-05-09T14:51:28.408Z,1.70
2023-05-09T14:53:35.648Z,1.65
2023-05-09T14:55:40.622Z,1.67
2023-05-09T14:59:50.228Z,2.40
2023-05-09T15:04:02.557Z,1.70
2023-05-09T15:06:08.014Z,2.03
2023-05-09T15:08:13.048Z,2.03
2023-05-09T15:14:28.687Z,1.70
2023-05-09T15:18:44.132Z,2.10
2023-05-09T15:20:49.191Z,1.90
2023-05-09T15:22:54.295Z,1.88
2023-05-09T15:24:59.245Z,1.73
2023-05-09T15:27:04.475Z,2.38
2023-05-09T15:29:09.696Z,1.80
2023-05-09T15:31:14.657Z,1.77
2023-05-09T15:33:22.269Z,1.85
2023-05-09T15:35:30.068Z,2.08
2023-05-09T15:37:35.848Z,2.13
2023-05-09T15:39:43.585Z,2.20
2023-05-09T15:41:51.479Z,2.05
2023-05-09T15:43:56.534Z,2.10
2023-05-09T15:46:01.561Z,1.95
2023-05-09T15:48:07.108Z,1.83
2023-05-09T15:50:13.053Z,1.95
2023-05-09T15:52:20.880Z,2.13
2023-05-09T15:54:26.489Z,2.45
2023-05-09T15:56:31.401Z,2.15
2023-05-09T15:58:36.984Z,2.25
2023-05-09T16:00:41.988Z,2.00
2023-05-09T16:02:47.061Z,2.00
2023-05-09T16:04:52.122Z,2.60
2023-05-09T16:06:57.347Z,1.92
2023-05-09T16:09:05.340Z,2.08
2023-05-09T16:11:10.449Z,2.67
2023-05-09T16:13:15.347Z,2.10
2023-05-09T16:15:20.797Z,1.80
2023-05-09T16:17:25.780Z,2.08
2023-05-09T16:19:33.714Z,2.40
2023-05-09T16:21:40.939Z,2.00
2023-05-09T16:23:45.862Z,2.00
2023-05-09T16:27:58.041Z,2.30
2023-05-09T16:32:08.454Z,2.22
2023-05-09T16:34:13.767Z,2.40
2023-05-09T16:36:18.964Z,2.05
2023-05-09T16:38:23.948Z,2.17
2023-05-09T16:42:36.488Z,2.00
2023-05-09T16:44:41.471Z,2.08
2023-05-09T16:48:54.038Z,2.40
2023-05-09T16:50:58.936Z,2.42
2023-05-09T16:53:05.019Z,2.47
2023-05-09T16:55:10.956Z,2.65
2023-05-09T16:57:16.171Z,2.67
2023-05-09T16:59:23.668Z,2.60
2023-05-09T17:01:29.339Z,2.33
2023-05-09T17:03:34.482Z,2.28
2023-05-09T17:07:44.071Z,2.20
2023-05-09T17:09:49.896Z,2.13
2023-05-09T17:11:54.851Z,1.98
2023-05-09T17:13:59.755Z,1.73
2023-05-09T17:16:07.852Z,3.30
2023-05-09T17:18:17.033Z,2.15
2023-05-09T17:20:25.929Z,2.20
2023-05-09T17:22:30.938Z,2.42
2023-05-09T17:26:40.723Z,2.35
2023-05-09T17:30:50.500Z,2.45
2023-05-09T17:32:58.068Z,2.08
2023-05-09T17:35:03.376Z,2.15
2023-05-09T17:37:09.366Z,2.55
2023-05-09T17:39:14.363Z,2.40
2023-05-09T17:41:19.313Z,1.95
2023-05-09T17:45:29.576Z,2.35
2023-05-09T17:47:34.498Z,2.30
2023-05-09T17:49:42.038Z,2.15
2023-05-09T17:51:47.506Z,2.03
2023-05-09T17:53:53.044Z,2.20
2023-05-09T17:55:58.044Z,2.03
2023-05-09T17:58:03.291Z,2.63
2023-05-09T18:00:15.015Z,2.63
2023-05-09T18:02:24.083Z,2.30
2023-05-09T18:04:31.262Z,2.28
2023-05-09T18:06:38.976Z,2.15
2023-05-09T18:08:44.019Z,2.40
2023-05-09T18:12:54.116Z,2.03
2023-05-09T18:17:03.777Z,2.15
2023-05-09T18:19:08.780Z,2.20
2023-05-09T18:21:14.122Z,2.28
2023-05-09T18:23:22.150Z,2.25
2023-05-09T18:25:27.671Z,1.70
2023-05-09T18:27:32.627Z,2.63
2023-05-09T18:29:37.558Z,2.83
2023-05-09T18:31:45.689Z,2.30
2023-05-09T18:33:50.692Z,2.47
2023-05-09T18:35:56.180Z,2.03
2023-05-09T18:38:01.121Z,2.78
2023-05-09T18:40:10.918Z,2.20
2023-05-09T18:42:16.538Z,3.03
2023-05-09T18:44:21.504Z,2.45
2023-05-09T18:46:28.085Z,2.47
2023-05-09T18:48:33.678Z,2.03
2023-05-09T18:50:38.609Z,2.30
2023-05-09T18:52:44.642Z,2.55
2023-05-09T18:54:49.695Z,2.72
2023-05-09T18:59:01.838Z,2.25
2023-05-09T19:01:11.573Z,1.95
2023-05-09T19:03:16.864Z,2.42
2023-05-09T19:07:26.790Z,2.00
2023-05-09T19:11:36.465Z,2.20
2023-05-09T19:13:48.840Z,2.15
2023-05-09T19:15:53.890Z,2.40
2023-05-09T19:17:58.893Z,2.33
2023-05-09T19:22:09.356Z,2.33
2023-05-09T19:24:14.274Z,2.40
2023-05-09T19:26:19.806Z,2.40
2023-05-09T19:28:24.972Z,2.22
2023-05-09T19:30:32.624Z,2.28
2023-05-09T19:32:37.643Z,2.35
2023-05-09T19:36:49.644Z,2.58
2023-05-09T19:38:54.682Z,2.22
2023-05-09T19:40:59.639Z,2.70
2023-05-09T19:43:14.802Z,3.08
2023-05-09T19:45:22.331Z,2.40
2023-05-09T19:47:30.071Z,3.08
2023-05-09T19:49:35.329Z,2.35
2023-05-09T19:51:40.691Z,2.67
2023-05-09T19:53:54.279Z,2.30
2023-05-09T19:55:59.200Z,2.45
2023-05-09T20:00:10.544Z,2.15
2023-05-09T20:02:16.931Z,2.50
2023-05-09T20:04:24.733Z,2.63
2023-05-09T20:06:30.329Z,2.50
2023-05-09T20:08:35.361Z,2.17
2023-05-09T20:12:45.639Z,3.42
2023-05-09T20:14:50.534Z,3.72
2023-05-09T20:16:55.647Z,2.60
2023-05-09T20:21:09.907Z,2.47
2023-05-09T20:23:14.986Z,2.65
2023-05-09T20:25:20.261Z,2.67
2023-05-09T20:27:25.233Z,2.55
2023-05-09T20:29:30.314Z,2.65
2023-05-09T20:33:40.217Z,2.88
2023-05-09T20:37:52.900Z,2.50
2023-05-09T20:39:57.848Z,3.28
2023-05-09T20:42:02.772Z,2.80
2023-05-09T20:44:08.363Z,3.08
2023-05-09T20:46:14.248Z,3.15
2023-05-09T20:48:22.655Z,3.22
2023-05-09T20:50:27.558Z,3.00
2023-05-09T20:52:32.683Z,3.20
2023-05-09T20:56:44.858Z,2.78
2023-05-09T20:58:49.787Z,2.78
2023-05-09T21:00:54.820Z,2.65
2023-05-09T21:02:59.737Z,3.10
2023-05-09T21:05:04.711Z,3.15
2023-05-09T21:09:15.095Z,2.50
2023-05-09T21:11:22.997Z,2.53
2023-05-09T21:13:28.113Z,3.05
2023-05-09T21:15:34.159Z,3.38
2023-05-09T21:17:39.252Z,2.85
2023-05-09T21:19:44.304Z,2.75
2023-05-09T21:21:49.225Z,2.50
2023-05-09T21:23:54.146Z,3.00
2023-05-09T21:25:59.084Z,2.70
2023-05-09T21:28:06.597Z,2.78
2023-05-09T21:30:12.572Z,2.78
2023-05-09T21:32:17.752Z,1.90
2023-05-09T21:36:28.292Z,2.45
2023-05-09T21:38:33.188Z,1.85
2023-05-09T21:40:38.145Z,2.00
2023-05-09T21:42:44.269Z,2.13
2023-05-09T21:44:51.892Z,2.55
2023-05-09T21:46:56.858Z,2.03
2023-05-09T21:49:01.959Z,2.30
2023-05-09T21:53:12.614Z,2.17
2023-05-09T21:55:19.039Z,2.00
2023-05-09T21:57:24.074Z,2.40
2023-05-09T21:59:29.537Z,2.72
2023-05-09T22:01:37.156Z,2.65
2023-05-09T22:03:42.204Z,2.67
2023-05-09T22:05:47.259Z,2.88
2023-05-09T22:07:53.663Z,2.95
2023-05-09T22:09:58.528Z,2.72
2023-05-09T22:12:04.197Z,2.80
2023-05-09T22:14:10.472Z,3.28
2023-05-09T22:16:15.430Z,3.92
2023-05-09T22:18:25.188Z,4.00
2023-05-09T22:20:30.486Z,3.50
2023-05-09T22:22:35.463Z,4.15
2023-05-09T22:24:41.754Z,3.92
2023-05-09T22:26:46.660Z,4.15
2023-05-09T22:28:51.779Z,3.90
2023-05-09T22:30:57.179Z,3.67
2023-05-09T22:33:02.864Z,3.72
2023-05-09T22:35:12.040Z,3.45
2023-05-09T22:37:17.015Z,4.28
2023-05-09T22:39:23.958Z,3.67
2023-05-09T22:43:38.586Z,4.50
2023-05-09T22:45:44.492Z,4.65
2023-05-09T22:47:49.502Z,4.57
2023-05-09T22:49:54.512Z,4.72
2023-05-09T22:52:02.384Z,4.45
2023-05-09T22:54:07.397Z,4.85
2023-05-09T22:56:12.903Z,4.45
2023-05-09T22:58:17.959Z,5.20
2023-05-09T23:00:25.632Z,4.40
2023-05-09T23:04:35.461Z,4.25
2023-05-09T23:06:40.458Z,4.53
2023-05-09T23:08:47.923Z,5.32
2023-05-09T23:10:52.978Z,5.35
2023-05-09T23:12:57.821Z,4.85
2023-05-09T23:15:02.786Z,4.38
2023-05-09T23:17:08.188Z,4.88
2023-05-09T23:19:13.313Z,4.32
2023-05-09T23:23:25.566Z,5.00
2023-05-09T23:25:33.002Z,5.40
2023-05-09T23:27:40.771Z,4.63
2023-05-09T23:29:45.767Z,5.28
2023-05-09T23:31:50.965Z,5.10
2023-05-09T23:33:55.876Z,5.07
2023-05-09T23:36:00.851Z,4.70
2023-05-09T23:38:06.160Z,4.68
2023-05-09T23:40:12.308Z,5.72
2023-05-09T23:42:22.524Z,5.07
2023-05-09T23:44:27.506Z,4.97
2023-05-09T23:46:32.596Z,5.70
2023-05-09T23:48:37.640Z,5.20
2023-05-09T23:50:45.497Z,4.50
2023-05-09T23:52:51.291Z,4.63
2023-05-09T23:54:56.224Z,4.90
2023-05-09T23:57:01.141Z,4.53
2023-05-09T23:59:08.659Z,4.75
